Aeroporto :
LOGIN :

Iscrizione | Disclaimer

   EN    FR    IT 

 










Sommario :    VFR   VFR Marginale   IFR   IFR Intensivo   IFR Molto Intensivo
Visibilità : 
Base nubi : 
>= 8 km
>= 3000ft
5 / 8 km
1000 / 3000 ft
1500m / 5 km
500 / 1000 ft
800 / 1500m
200 / 500 ft
< 800m
< 200 ft
Simboli :   Temporali  Nebbia  Neve Forte  Precipitazioni Forti  Vento > 20 kt
SIGMETs :   Varie  Temporali  Ghiacco  Turbolenza  Onda orograficha  Ceneri Vulcaniche






- Altitudine del aeroporto : 1234 ft
- Codice IATA : LUX


ELLX - Luxembourg Findel

ULTIMO METAR :
  • 082050Z 24017KT 9999 -SHRA FEW011 SCT014 BKN023 07/05 Q1004 TEMPO 24015G30KT 5000 SHRA SCT012TCU

METARs OBSOLETI :
  • 082020Z 24017KT 9999 FEW011 SCT015 BKN022 07/05 Q1004 TEMPO 24015G30KT 5000 SHRA SCT012TCU
  • 081950Z 23013KT 9999 FEW012 SCT014 BKN022 07/05 Q1004 TEMPO 24015G30KT 5000 SHRA SCT012TCU
  • 081920Z 24014G25KT 9999 SCT013 BKN015 07/05 Q1004 TEMPO 24015G30KT 5000 SHRA SCT012TCU
  • 081850Z 24011KT 190V250 9999 FEW012 SCT015 BKN020 07/06 Q1004 NOSIG
  • 081820Z 25009KT 9999 SCT010 BKN014 07/06 Q1004 NOSIG

TAF TAF ELLX
Valido dal 08 a 18 ore il 10 a 00 ore UTC


081700Z 0818/0924 25015KT 9999 FEW020 BKN030
TEMPO 0821/0909 26020G35KT
TEMPO 0821/0918 SHRA BKN013TCU
PROB30
TEMPO 0906/0918 3000 TSRA BKN013CB
ATIS : +352 4798 27300
Met : +352 4798 27010 / 27050



MetMap, La meteo Aeronautica in un colpo d'occhio ! - Copyright ORBIFLY Dicembre 2007 - Disclaimer

ORBIFLY MET'MAP TEAM :

Programmazione e sviluppo : Alexandra Zaïnal
Concezione : Baudouin d'Aumeries
Aiuto per la programmazione : Marc-Olivier Méhu
Supporto tecnico e logistico : Manuel Goepfert
Aiuto per la traduzione : Arnaldo La Scala

Contatto : metmap@orbifly.com




FONTI E CREDITI :

   NOAA